Flight Track Log - Related Links

Times and Time Zones

All times are in EDT time to prevent confusion due to time zone crossing. See the EJM303 flight status page for this flight to view local times or setup timezone preferences in your user account.

Time Position Orientation Groundspeed Altitude Reporting Facility
EDT Latitude Longitude Course Direction KTS MPH feet Rate Location/Type
Sun 11:38:39 AM 26.7389 -79.9597 57° Northeast 259 298 5,800  Level Miami Center
Sun 11:40:39 AM 26.8419 -79.8206 50° Northeast 300 345 12,000 2,100 Climbing Miami Center
Sun 11:41:39 AM 26.9019 -79.7428 49° Northeast 313 360 12,100 300 Climbing Miami Center
Sun 11:42:39 AM 26.9536 -79.6647 53° Northeast 313 360 12,600 1,550 Climbing Miami Center
Sun 11:43:00 AM 27.0693 -79.4544 53° Northeast  Level FlightAware Approximate
Sun 11:43:39 AM 27.0053 -79.5892 52° Northeast 324 373 15,200  Level Miami Center
Sun 11:44:00 AM 27.1470 -79.3594 57° Northeast  Level FlightAware Approximate
Sun 11:44:39 AM 27.0756 -79.5161 43° Northeast 339 390 17,100  Level Miami Center
Sun 11:45:39 AM 27.1686 -79.4458 34° Northeast 347 399 18,900 1,850 Climbing Miami Center
Sun 11:46:39 AM 27.2572 -79.3917 29° Northeast 359 413 20,800 1,700 Climbing Miami Center
Sun 11:47:39 AM 27.3581 -79.3611 15° North 366 421 22,300 1,500 Climbing Miami Center
Sun 11:48:39 AM 27.4506 -79.3306 16° North 379 436 23,800 1,550 Climbing Miami Center
Sun 11:49:39 AM 27.5575 -79.2975 15° North 384 442 25,400 1,300 Climbing Miami Center
Sun 11:50:39 AM 27.6753 -79.2556 18° North 392 451 26,400 900 Climbing Miami Center
Sun 11:51:39 AM 27.7844 -79.2203 16° North 402 463 27,200 850 Climbing Miami Center
Sun 11:52:39 AM 27.8783 -79.2200 360° North 408 470 28,100 1,200 Climbing Miami Center
Sun 11:53:39 AM 27.9950 -79.2294 356° North 401 461 29,600 1,300 Climbing Miami Center
Sun 11:54:39 AM 28.1056 -79.2364 357° North 395 455 30,700 1,100 Climbing Miami Center
Sun 11:55:39 AM 28.2306 -79.2508 354° North 406 467 31,800 900 Climbing Miami Center
Sun 11:56:39 AM 28.3478 -79.2392 North 406 467 32,500 600 Climbing Miami Center
Sun 11:57:39 AM 28.4650 -79.2156 10° North 412 474 33,000 250 Climbing Miami Center
Sun 11:58:39 AM 28.5844 -79.1897 11° North 418 481 33,000 200 Level Miami Center
Sun 11:59:39 AM 28.7081 -79.1592 12° North 434 499 33,400 900 Climbing Miami Center
Sun 12:00:39 PM 28.8378 -79.1383 North 449 517 34,800 800 Climbing Miami Center
Sun 12:01:39 PM 28.9572 -79.1075 13° North 449 517 35,000 100 Climbing Miami Center
Sun 12:02:39 PM 29.0828 -79.0817 10° North 449 517 35,000  Level Miami Center
Sun 12:03:39 PM 29.2208 -79.0581 North 465 535 35,000 250 Level Miami Center
Sun 12:04:39 PM 29.3403 -79.0247 14° North 470 541 35,500 500 Climbing Miami Center
Sun 12:05:39 PM 29.4700 -78.9989 10° North 465 535 36,000 556 Climbing Miami Center
Sun 12:07:21 PM 29.6669 -78.9489 12° North 463 533 37,000 556 Climbing Jacksonville Center
Sun 12:08:21 PM 29.7872 -78.9203 12° North 456 525 37,500 504 Climbing Jacksonville Center
Sun 12:09:32 PM 29.9139 -78.9006 North 448 516 38,100 591 Climbing Jacksonville Center
Sun 12:10:33 PM 30.0592 -78.8706 10° North 443 510 38,800 446 Climbing Jacksonville Center
Sun 12:11:33 PM 30.1728 -78.8372 14° North 437 503 39,000 100 Climbing Jacksonville Center
Sun 12:12:33 PM 30.3028 -78.7908 17° North 435 501 39,000  Level Jacksonville Center
Sun 12:13:33 PM 30.4225 -78.7469 18° North 440 506 39,000  Level Jacksonville Center
Sun 12:14:33 PM 30.5442 -78.7008 18° North 448 516 39,000  Level Jacksonville Center
Sun 12:15:33 PM 30.6636 -78.6569 18° North 460 529 39,000  Level Jacksonville Center
Sun 12:16:33 PM 30.7875 -78.6103 18° North 455 524 39,000  Level Jacksonville Center
Sun 12:17:33 PM 30.9111 -78.5636 18° North 455 524 39,000  Level Jacksonville Center
Sun 12:18:33 PM 31.0350 -78.5214 16° North 461 531 39,000  Level Jacksonville Center
Sun 12:19:33 PM 31.1586 -78.4744 18° North 456 525 39,000  Level Jacksonville Center
Sun 12:20:33 PM 31.2842 -78.4272 18° North 462 532 39,000  Level Jacksonville Center
Sun 12:21:33 PM 31.4097 -78.3750 20° North 455 524 39,000  Level Jacksonville Center
Sun 12:22:33 PM 31.5375 -78.3297 17° North 455 524 39,000  Level Jacksonville Center
Sun 12:23:33 PM 31.6631 -78.2822 18° North 468 539 39,000  Level Jacksonville Center
Sun 12:24:33 PM 31.7883 -78.2294 20° North 473 544 39,000  Level Jacksonville Center
Sun 12:25:33 PM 31.9161 -78.1814 18° North 473 544 39,000  Level Jacksonville Center
Sun 12:26:33 PM 32.0417 -78.1333 18° North 473 544 39,000  Level Jacksonville Center
Sun 12:27:33 PM 32.1692 -78.0825 19° North 473 544 39,000  Level Jacksonville Center
Sun 12:28:33 PM 32.2947 -78.0392 16° North 473 544 39,000  Level Jacksonville Center
Sun 12:29:33 PM 32.4242 -77.9831 20° North 473 544 39,000  Level Jacksonville Center
Sun 12:30:33 PM 32.5517 -77.9342 18° North 473 544 39,000  Level Jacksonville Center
Sun 12:31:33 PM 32.6811 -77.8853 18° North 473 544 39,000  Level Jacksonville Center
Sun 12:32:33 PM 32.8086 -77.8361 18° North 473 544 39,000  Level Jacksonville Center
Sun 12:33:33 PM 32.9361 -77.7869 18° North 473 544 39,000  Level Jacksonville Center
Sun 12:34:33 PM 33.0656 -77.7372 18° North 473 544 39,000  Level Jacksonville Center
Sun 12:36:05 PM 33.2506 -77.6650 18° North 467 537 39,000  Level Washington Center
Sun 12:37:05 PM 33.3808 -77.6111 19° North 472 543 39,000  Level Washington Center
Sun 12:38:05 PM 33.5089 -77.5592 19° North 477 549 39,000  Level Washington Center
Sun 12:39:05 PM 33.6392 -77.5075 18° North 477 549 39,000  Level Washington Center
Sun 12:40:05 PM 33.7714 -77.4556 18° North 487 560 39,000  Level Washington Center
Sun 12:41:05 PM 33.9142 -77.4011 18° North 487 560 39,000  Level Washington Center
Sun 12:42:05 PM 34.0442 -77.3464 19° North 487 560 39,000 -50 Level Washington Center
Sun 12:43:05 PM 34.1764 -77.2939 18° North 487 560 38,900  Descending Washington Center
Sun 12:44:05 PM 34.3064 -77.2414 18° North 487 560 39,000 50 Climbing Washington Center
Sun 12:45:05 PM 34.4367 -77.1861 19° North 487 560 39,000  Level Washington Center
Sun 12:46:05 PM 34.5686 -77.1356 18° North 487 560 39,000  Level Washington Center
Sun 12:47:05 PM 34.7008 -77.0800 19° North 487 560 39,000  Level Washington Center
Sun 12:48:05 PM 34.8331 -77.0267 18° North 493 567 39,000  Level Washington Center
Sun 12:49:05 PM 34.9672 -76.9758 17° North 493 567 39,000  Level Washington Center
Sun 12:50:05 PM 35.0992 -76.9172 20° North 493 567 39,000  Level Washington Center
Sun 12:51:05 PM 35.2167 -76.8658 20° North 493 567 39,000  Level Washington Center
Sun 12:52:05 PM 35.3508 -76.8092 19° North 498 573 39,000  Level Washington Center
Sun 12:53:05 PM 35.4953 -76.7503 18° North 498 573 39,000  Level Washington Center
Sun 12:54:05 PM 35.6294 -76.6933 19° North 498 573 39,000  Level Washington Center
Sun 12:55:05 PM 35.7592 -76.6389 19° North 503 579 39,000  Level Washington Center
Sun 12:56:05 PM 35.8933 -76.5817 19° North 503 579 39,000  Level Washington Center
Sun 12:57:05 PM 36.0250 -76.5294 18° North 503 579 39,000 -50 Level Washington Center
Sun 12:58:05 PM 36.1592 -76.4719 19° North 503 579 38,900 400 Descending Washington Center
Sun 12:59:05 PM 36.2867 -76.4167 19° North 498 573 39,800 900 Climbing Washington Center
Sun 01:00:05 PM 36.4081 -76.3661 19° North 480 552 40,700 600 Climbing Washington Center
Sun 01:01:05 PM 36.5272 -76.3156 19° North 461 531 41,000 150 Climbing Washington Center
Sun 01:02:05 PM 36.6486 -76.2650 18° North 453 521 41,000  Level Washington Center
Sun 01:03:05 PM 36.7658 -76.2117 20° North 453 521 41,000  Level Washington Center
Sun 01:04:05 PM 36.8892 -76.1553 20° North 453 521 41,000  Level Washington Center
Sun 01:05:05 PM 37.0167 -76.1069 17° North 458 527 41,000  Level Washington Center
Sun 01:06:05 PM 37.1397 -76.0531 19° North 463 533 41,000  Level Washington Center
Sun 01:07:05 PM 37.2631 -75.9989 19° North 463 533 41,000  Level Washington Center
Sun 01:08:05 PM 37.3883 -75.9447 19° North 468 539 41,000  Level Washington Center
Sun 01:09:05 PM 37.5117 -75.8903 19° North 468 539 41,000  Level Washington Center
Sun 01:10:05 PM 37.6389 -75.8358 19° North 468 539 41,000  Level Washington Center
Sun 01:11:05 PM 37.7642 -75.7808 19° North 468 539 41,000  Level Washington Center
Sun 01:12:05 PM 37.8894 -75.7233 20° North 468 539 41,000  Level Washington Center
Sun 01:13:05 PM 38.0147 -75.6656 20° North 468 539 41,000  Level Washington Center
Sun 01:14:05 PM 38.1253 -75.6103 21° North 468 539 41,000  Level Washington Center
Sun 01:15:05 PM 38.2522 -75.5547 19° North 468 539 41,000  Level Washington Center
Sun 01:16:05 PM 38.3775 -75.5017 18° North 468 539 41,000  Level Washington Center
Sun 01:17:05 PM 38.5044 -75.4458 19° North 468 539 41,000  Level Washington Center
Sun 01:18:05 PM 38.6317 -75.4003 16° North 468 539 41,000  Level Washington Center
Sun 01:19:05 PM 38.7608 -75.3467 18° North 473 544 41,000  Level Washington Center
Sun 01:20:05 PM 38.8753 -75.2556 32° Northeast 478 550 41,000  Level Washington Center
Sun 01:21:05 PM 38.9853 -75.1483 37° Northeast 483 556 41,000  Level Washington Center
Sun 01:22:05 PM 39.0953 -75.0406 37° Northeast 490 564 41,000  Level Washington Center
Sun 01:23:05 PM 39.2033 -74.9300 38° Northeast 490 564 41,000 -550 Level Washington Center
Sun 01:24:05 PM 39.3131 -74.8217 37° Northeast 490 564 39,900 -1,600 Descending Washington Center
Sun 01:25:05 PM 39.4206 -74.7103 39° Northeast 490 564 37,800 -2,071 Descending Washington Center
Sun 01:26:53 PM 39.6164 -74.5142 38° Northeast 460 529 34,100 -1,952 Descending New York Center
Sun 01:27:51 PM 39.7156 -74.4142 38° Northeast 478 550 32,400 -1,831 Descending New York Center
Sun 01:28:51 PM 39.8250 -74.3064 37° Northeast 488 562 30,500 -1,950 Descending New York Center
Sun 01:29:51 PM 39.9347 -74.1928 38° Northeast 493 567 28,500 -1,983 Descending New York Center
Sun 01:30:52 PM 40.0464 -74.0789 38° Northeast 504 580 26,500 -1,721 Descending New York Center
Sun 01:31:53 PM 40.1517 -73.9700 38° Northeast 499 574 25,000 -756 Descending New York Center
Sun 01:32:51 PM 40.2586 -73.8633 37° Northeast 488 562 25,000 -594 Level New York Center
Sun 01:35:15 PM 40.4958 -73.6136 39° Northeast 476 548 23,000 -941 Descending Boston Center
Sun 01:36:15 PM 40.6158 -73.4900 38° Northeast 465 535 21,800 -1,450 Descending Boston Center
Sun 01:37:15 PM 40.7064 -73.3900 40° Northeast 438 504 20,100 -1,400 Descending Boston Center
Sun 01:38:15 PM 40.7986 -73.3036 35° Northeast 418 481 19,000 -1,000 Descending Boston Center
Sun 01:39:15 PM 40.8847 -73.2033 41° Northeast 413 475 18,100 -1,045 Descending Boston Center
Sun 01:40:27 PM 40.9708 -73.0997 42° Northeast 413 475 16,700 -1,607 Descending Boston Center
Sun 01:41:07 PM 41.0422 -73.0153 42° Northeast 389 448 15,100 -2,300 Descending Boston Center
Sun 01:41:27 PM 41.0717 -72.9853 38° Northeast 406 467 14,400 -1,701 Descending Boston Center
Sun 01:42:14 PM 41.1261 -72.9194 42° Northeast 356 410 13,200 -1,421 Descending Boston Center
Sun 01:43:21 PM 41.2014 -72.8319 41° Northeast 332 382 11,700 -1,031 Descending Boston Center
Sun 01:44:22 PM 41.2703 -72.7494 42° Northeast 310 357 11,000 -541 Descending Boston Center
Sun 01:45:23 PM 41.3497 -72.7139 19° North 300 345 10,600 -480 Descending Boston Center
Sun 01:46:27 PM 41.4289 -72.6753 20° North 289 333 10,000 -787 Descending Boston Center
Sun 01:47:25 PM 41.4978 -72.6453 18° North 277 319 9,000 -1,513 Descending Boston Center
Sun 01:48:26 PM 41.5728 -72.6094 20° North 274 315 7,000 -2,016 Descending Boston Center
Sun 01:49:27 PM 41.6417 -72.5983 North 250 288 4,900 -1,438 Descending Boston Center
Sun 01:50:27 PM 41.7083 -72.5931 North 240 276 4,100 -609 Descending Boston Center
Sun 01:51:35 PM 41.7750 -72.5931 360° North 224 258 3,600 -700 Descending Boston Center
Sun 01:52:27 PM 41.8333 -72.5933 360° North 224 258 2,700 -696 Descending Boston Center
Sun 01:53:27 PM 41.8814 -72.6131 343° North 190 219 2,300 -632 Descending Boston Center
Sun 01:53:43 PM 41.8856 -72.6214 304° West 148 170 1,900 -1,300 Descending Boston Center
Sun 01:54:27 PM 41.9083 -72.6492 318° Northwest 149 171 1,000 -1,180 Descending Boston Center
Sun 01:54:44 PM 41.9125 -72.6606 296° West 151 174 700 -1,059 Descending Boston Center
Sun 01:57:00 PM 41.9333 -72.6833 315° West  Level FlightAware Approximate
Sun 02:04:00 PM 41.9392 -72.6834 315° West  Level Estimated
Sun 02:05:00 PM 41.9333 -72.6833 315° West  Level FlightAware Approximate

Login

Don't have an account? Register now (free) for customized features, flight alerts, and more!